Terminal Aerodrome Forecast
Issued by NWS

Home | Current Version | Previous Version | Graphics & Text | Print | Product List | Glossary On
Versions: 1 2 3 4 5 6 7 8 9 10 11 12 13 14 15 16 17 18 19 20 21
000
FTUS43 KTOP 171346 AAC
TAFFOE
TAF AMD
KFOE 171346Z 1714/1812 20004KT 2SM -DZ BR BKN004
      TEMPO 1714/1717 6SM BKN012
     FM171700 25005KT P6SM BKN015
     FM172000 24005KT P6SM BKN035=

USA.gov is the U.S. government's official web portal to all federal, state and local government web resources and services.